createdAt,value
2023-01-13T00:03:28.430Z,5.30
2023-01-13T00:10:05.487Z,5.80
2023-01-13T00:13:14.473Z,5.80
2023-01-13T00:16:45.588Z,5.70
2023-01-13T00:19:48.561Z,5.70
2023-01-13T00:23:17.216Z,6.60
2023-01-13T00:26:53.301Z,5.80
2023-01-13T00:30:00.574Z,5.80
2023-01-13T00:33:18.534Z,5.90
2023-01-13T00:36:33.781Z,6.50
2023-01-13T00:39:48.753Z,6.80
2023-01-13T00:43:08.191Z,6.50
2023-01-13T00:46:38.661Z,6.20
2023-01-13T00:49:59.870Z,6.10
2023-01-13T00:53:35.993Z,5.40
2023-01-13T00:56:55.245Z,5.30
2023-01-13T01:00:31.322Z,5.50
2023-01-13T01:04:35.344Z,5.20
2023-01-13T01:08:11.759Z,4.80
2023-01-13T01:11:55.465Z,5.30
2023-01-13T01:15:12.197Z,4.80
2023-01-13T01:18:29.852Z,5.40
2023-01-13T01:21:56.676Z,5.40
2023-01-13T01:25:02.089Z,4.70
2023-01-13T01:28:23.042Z,5.00
2023-01-13T01:32:00.865Z,4.50
2023-01-13T01:35:16.846Z,4.60
2023-01-13T01:38:53.962Z,4.80
2023-01-13T01:42:33.882Z,5.00
2023-01-13T01:46:18.366Z,4.20
2023-01-13T01:50:16.253Z,4.40
2023-01-13T01:53:50.009Z,4.20
2023-01-13T01:57:11.813Z,4.40
2023-01-13T02:00:30.079Z,4.30
2023-01-13T02:03:17.368Z,4.70
2023-01-13T02:06:00.551Z,4.60
2023-01-13T02:08:43.892Z,4.80
2023-01-13T02:11:51.584Z,4.30
2023-01-13T02:14:35.382Z,4.70
2023-01-13T02:17:21.034Z,5.60
2023-01-13T02:20:36.624Z,5.10
2023-01-13T02:24:00.008Z,4.40
2023-01-13T02:27:01.034Z,5.60
2023-01-13T02:30:11.592Z,4.30
2023-01-13T02:33:26.603Z,4.70
2023-01-13T02:36:15.323Z,5.10
2023-01-13T02:39:07.658Z,5.20
2023-01-13T02:42:16.632Z,6.00
2023-01-13T02:45:10.498Z,5.70
2023-01-13T02:47:56.308Z,4.80
2023-01-13T02:50:44.547Z,5.60
2023-01-13T02:53:37.181Z,5.50
2023-01-13T02:56:22.961Z,5.10
2023-01-13T02:59:06.998Z,5.30
2023-01-13T03:01:51.210Z,5.00
2023-01-13T03:04:48.579Z,5.80
2023-01-13T03:07:40.617Z,5.70
2023-01-13T03:10:51.620Z,5.40
2023-01-13T03:14:16.131Z,5.00
2023-01-13T03:17:10.920Z,4.60
2023-01-13T03:20:19.112Z,4.80
2023-01-13T03:23:32.114Z,5.40
2023-01-13T03:26:38.490Z,5.20
2023-01-13T03:29:35.143Z,4.70
2023-01-13T03:32:37.208Z,4.70
2023-01-13T03:35:26.103Z,4.70
2023-01-13T03:38:15.867Z,4.50
2023-01-13T03:41:10.446Z,5.30
2023-01-13T03:44:24.907Z,5.40
2023-01-13T03:47:18.706Z,3.90
2023-01-13T03:50:12.827Z,5.20
2023-01-13T03:53:00.818Z,5.00
2023-01-13T03:55:58.904Z,4.60
2023-01-13T03:58:46.251Z,4.10
2023-01-13T04:01:39.484Z,4.70
2023-01-13T04:04:30.357Z,3.80
2023-01-13T04:07:33.763Z,4.00
2023-01-13T04:10:27.845Z,3.80
2023-01-13T04:13:15.780Z,4.00
2023-01-13T04:16:00.630Z,4.00
2023-01-13T04:18:43.536Z,4.30
2023-01-13T04:21:26.766Z,4.10
2023-01-13T04:24:10.089Z,4.10
2023-01-13T04:26:56.453Z,3.90
2023-01-13T04:29:39.305Z,3.40
2023-01-13T04:32:22.211Z,3.70
2023-01-13T04:35:05.607Z,3.40
2023-01-13T04:37:48.788Z,3.80
2023-01-13T04:40:31.789Z,3.40
2023-01-13T04:43:16.046Z,3.30
2023-01-13T04:45:58.968Z,3.50
2023-01-13T04:48:41.967Z,3.70
2023-01-13T04:51:24.891Z,4.20
2023-01-13T04:54:09.210Z,3.60
2023-01-13T04:56:52.232Z,3.50
2023-01-13T04:59:35.046Z,4.60
2023-01-13T05:02:20.753Z,4.20
2023-01-13T05:05:04.506Z,3.90
2023-01-13T05:07:47.448Z,4.10
2023-01-13T05:10:30.914Z,3.70
2023-01-13T05:13:32.388Z,4.40
2023-01-13T05:16:39.303Z,4.80
2023-01-13T05:19:22.307Z,3.90
2023-01-13T05:22:24.370Z,3.80
2023-01-13T05:25:22.151Z,4.40
2023-01-13T05:28:07.158Z,4.70
2023-01-13T05:30:51.215Z,4.30
2023-01-13T05:33:35.746Z,4.80
2023-01-13T05:36:18.794Z,4.80
2023-01-13T05:39:01.918Z,4.80
2023-01-13T05:42:03.579Z,4.70
2023-01-13T05:44:46.415Z,5.50
2023-01-13T05:47:29.579Z,4.70
2023-01-13T05:50:12.641Z,5.40
2023-01-13T05:52:55.701Z,5.00
2023-01-13T05:55:40.579Z,5.50
2023-01-13T05:58:25.541Z,5.40
2023-01-13T06:01:10.022Z,5.10
2023-01-13T06:03:52.977Z,5.90
2023-01-13T06:06:36.027Z,5.30
2023-01-13T06:09:21.195Z,5.20
2023-01-13T06:12:04.476Z,5.40
2023-01-13T06:14:47.434Z,6.20
2023-01-13T06:17:30.515Z,5.80
2023-01-13T06:20:15.219Z,5.00
2023-01-13T06:22:58.995Z,5.10
2023-01-13T06:25:58.585Z,4.70
2023-01-13T06:28:41.755Z,4.50
2023-01-13T06:31:26.283Z,4.10
2023-01-13T06:34:13.618Z,4.60
2023-01-13T06:36:56.832Z,4.60
2023-01-13T06:39:40.680Z,4.50
2023-01-13T06:42:43.754Z,4.30
2023-01-13T06:48:10.520Z,4.50
2023-01-13T06:50:53.711Z,4.40
2023-01-13T06:53:36.548Z,4.10
2023-01-13T06:56:19.399Z,4.50
2023-01-13T06:59:02.201Z,3.80
2023-01-13T07:01:45.258Z,4.40
2023-01-13T07:04:28.334Z,3.80
2023-01-13T07:07:12.528Z,4.00
2023-01-13T07:09:55.502Z,3.90
2023-01-13T07:12:59.272Z,3.30
2023-01-13T07:15:42.167Z,3.70
2023-01-13T07:18:27.485Z,3.10
2023-01-13T07:21:13.267Z,3.40
2023-01-13T07:23:56.351Z,3.90
2023-01-13T07:26:39.518Z,3.60
2023-01-13T07:29:22.675Z,3.60
2023-01-13T07:32:07.220Z,3.20
2023-01-13T07:34:50.457Z,4.40
2023-01-13T07:37:35.652Z,3.30
2023-01-13T07:40:18.939Z,3.30
2023-01-13T07:43:20.761Z,3.30
2023-01-13T07:46:06.147Z,4.00
2023-01-13T07:48:49.276Z,3.60
2023-01-13T07:51:32.245Z,3.60
2023-01-13T07:54:15.192Z,3.10
2023-01-13T07:56:59.165Z,3.40
2023-01-13T07:59:42.362Z,3.60
2023-01-13T08:02:25.642Z,4.30
2023-01-13T08:05:09.319Z,3.40
2023-01-13T08:07:52.383Z,3.50
2023-01-13T08:10:35.742Z,3.30
2023-01-13T08:13:21.042Z,3.80
2023-01-13T08:16:07.386Z,3.60
2023-01-13T08:18:50.651Z,4.30
2023-01-13T08:21:33.769Z,3.90
2023-01-13T08:24:16.660Z,3.80
2023-01-13T08:26:59.684Z,3.70
2023-01-13T08:29:42.816Z,3.90
2023-01-13T08:32:25.961Z,3.90
2023-01-13T08:35:09.270Z,4.20
2023-01-13T08:37:52.457Z,4.20
2023-01-13T08:40:36.025Z,4.10
2023-01-13T08:43:19.355Z,3.90
2023-01-13T08:46:04.942Z,3.80
2023-01-13T08:48:48.042Z,3.90
2023-01-13T08:51:32.183Z,4.70
2023-01-13T08:54:15.302Z,4.20
2023-01-13T08:56:58.430Z,4.10
2023-01-13T08:59:43.582Z,4.40
2023-01-13T09:02:27.488Z,4.20
2023-01-13T09:05:10.868Z,4.10
2023-01-13T09:07:53.767Z,3.70
2023-01-13T09:10:37.065Z,3.80
2023-01-13T09:13:21.960Z,5.00
2023-01-13T09:16:05.634Z,4.90
2023-01-13T09:18:48.671Z,3.90
2023-01-13T09:21:31.651Z,4.80
2023-01-13T09:24:14.530Z,3.80
2023-01-13T09:26:57.768Z,4.70
2023-01-13T09:29:40.941Z,4.20
2023-01-13T09:32:23.988Z,4.10
2023-01-13T09:35:08.202Z,4.10
2023-01-13T09:37:51.253Z,4.10
2023-01-13T09:40:38.371Z,4.30
2023-01-13T09:43:52.165Z,5.10
2023-01-13T09:46:47.378Z,4.00
2023-01-13T09:49:38.849Z,4.00
2023-01-13T09:52:26.533Z,3.70
2023-01-13T09:55:16.107Z,3.60
2023-01-13T09:58:01.302Z,4.00
2023-01-13T10:01:02.879Z,3.50
2023-01-13T10:03:45.884Z,3.50
2023-01-13T10:06:47.614Z,3.30
2023-01-13T10:09:52.765Z,4.10
2023-01-13T10:12:54.097Z,4.50
2023-01-13T10:15:37.157Z,4.30
2023-01-13T10:18:57.616Z,4.00
2023-01-13T10:21:53.118Z,4.60
2023-01-13T10:24:36.034Z,3.80
2023-01-13T10:27:30.274Z,4.40
2023-01-13T10:30:35.116Z,3.90
2023-01-13T10:33:26.958Z,4.00
2023-01-13T10:36:16.601Z,3.90
2023-01-13T10:39:15.315Z,3.70
2023-01-13T10:42:03.220Z,4.30
2023-01-13T10:44:51.995Z,4.60
2023-01-13T10:47:37.106Z,3.90
2023-01-13T10:50:26.986Z,4.00
2023-01-13T10:53:29.119Z,3.90
2023-01-13T10:56:18.228Z,4.00
2023-01-13T10:59:15.110Z,3.30
2023-01-13T11:02:13.168Z,3.50
2023-01-13T11:05:21.693Z,4.00
2023-01-13T11:08:05.235Z,3.70
2023-01-13T11:10:51.517Z,4.00
2023-01-13T11:14:01.850Z,3.90
2023-01-13T11:16:53.458Z,4.50
2023-01-13T11:19:43.908Z,4.10
2023-01-13T11:22:33.565Z,3.80
2023-01-13T11:25:24.172Z,3.80
2023-01-13T11:28:16.846Z,3.70
2023-01-13T11:31:15.269Z,3.90
2023-01-13T11:34:35.055Z,4.20
2023-01-13T11:37:23.407Z,4.00
2023-01-13T11:40:06.529Z,3.80
2023-01-13T11:42:49.539Z,3.80
2023-01-13T11:45:41.328Z,3.90
2023-01-13T11:48:27.557Z,3.80
2023-01-13T11:51:13.554Z,4.20
2023-01-13T11:54:14.968Z,3.90
2023-01-13T11:57:24.579Z,4.40
2023-01-13T12:00:23.893Z,4.90
2023-01-13T12:03:06.875Z,3.80
2023-01-13T12:06:03.590Z,3.60
2023-01-13T12:08:52.375Z,4.20
2023-01-13T12:12:20.020Z,4.50
2023-01-13T12:15:22.273Z,4.10
2023-01-13T12:18:17.788Z,4.00
2023-01-13T12:21:13.117Z,4.70
2023-01-13T12:23:59.193Z,4.60
2023-01-13T12:26:49.648Z,4.00
2023-01-13T12:29:35.722Z,5.00
2023-01-13T12:32:35.509Z,4.80
2023-01-13T12:35:24.603Z,5.10
2023-01-13T12:38:26.039Z,5.80
2023-01-13T12:42:08.097Z,5.90
2023-01-13T12:45:10.139Z,5.20
2023-01-13T12:47:53.566Z,5.00
2023-01-13T12:50:40.946Z,5.90
2023-01-13T12:53:31.276Z,5.70
2023-01-13T12:56:20.373Z,5.50
2023-01-13T12:59:19.174Z,4.80
2023-01-13T13:02:11.379Z,5.00
2023-01-13T13:05:14.793Z,5.40
2023-01-13T13:08:13.113Z,5.20
2023-01-13T13:11:28.924Z,5.30
2023-01-13T13:14:13.875Z,4.30
2023-01-13T13:16:56.864Z,5.10
2023-01-13T13:19:42.216Z,5.00
2023-01-13T13:22:27.907Z,4.50
2023-01-13T13:25:21.585Z,4.40
2023-01-13T13:28:16.398Z,3.60
2023-01-13T13:31:21.474Z,4.40
2023-01-13T13:34:26.303Z,3.90
2023-01-13T13:37:24.292Z,4.00
2023-01-13T13:40:29.335Z,4.10
2023-01-13T13:43:33.524Z,4.10
2023-01-13T13:46:47.232Z,3.90
2023-01-13T13:49:56.041Z,4.30
2023-01-13T13:52:51.467Z,5.20
2023-01-13T13:55:34.960Z,5.40
2023-01-13T13:58:18.262Z,4.70
2023-01-13T14:01:01.697Z,4.70
2023-01-13T14:03:45.054Z,4.20
2023-01-13T14:06:29.815Z,4.20
2023-01-13T14:09:17.346Z,4.00
2023-01-13T14:12:03.276Z,3.80
2023-01-13T14:14:47.918Z,3.70
2023-01-13T14:17:31.645Z,2.80
2023-01-13T14:20:18.683Z,3.30
2023-01-13T14:23:01.803Z,4.60
2023-01-13T14:25:53.510Z,3.00
2023-01-13T14:28:41.093Z,3.30
2023-01-13T14:31:25.081Z,3.00
2023-01-13T14:34:31.683Z,3.50
2023-01-13T14:37:40.302Z,4.00
2023-01-13T14:40:36.393Z,3.30
2023-01-13T14:43:24.759Z,3.20
2023-01-13T14:46:07.860Z,3.60
2023-01-13T14:49:01.402Z,3.90
2023-01-13T14:51:45.782Z,3.70
2023-01-13T14:54:41.009Z,4.10
2023-01-13T14:57:33.715Z,3.50
2023-01-13T15:00:18.851Z,3.90
2023-01-13T15:03:08.145Z,3.80
2023-01-13T15:05:53.585Z,3.80
2023-01-13T15:08:39.179Z,3.50
2023-01-13T15:11:28.744Z,4.10
2023-01-13T15:14:12.149Z,4.40
2023-01-13T15:16:56.233Z,4.20
2023-01-13T15:19:39.272Z,3.70
2023-01-13T15:22:22.367Z,3.80
2023-01-13T15:25:06.170Z,4.40
2023-01-13T15:27:51.759Z,4.40
2023-01-13T15:30:34.761Z,4.10
2023-01-13T15:33:19.011Z,3.80
2023-01-13T15:36:02.055Z,3.80
2023-01-13T15:38:45.037Z,3.60
2023-01-13T15:41:46.777Z,3.60
2023-01-13T15:44:48.524Z,4.40
2023-01-13T15:47:31.493Z,3.60
2023-01-13T15:50:16.522Z,4.30
2023-01-13T15:52:59.550Z,3.20
2023-01-13T15:55:45.254Z,4.00
2023-01-13T15:58:29.772Z,3.70
2023-01-13T16:01:13.664Z,4.30
2023-01-13T16:03:56.785Z,3.60
2023-01-13T16:06:39.746Z,4.10
2023-01-13T16:09:22.790Z,4.70
2023-01-13T16:12:06.209Z,4.30
2023-01-13T16:14:49.256Z,4.30
2023-01-13T16:17:34.467Z,4.70
2023-01-13T16:20:18.614Z,4.30
2023-01-13T16:23:01.731Z,4.50
2023-01-13T16:25:46.909Z,4.40
2023-01-13T16:28:29.826Z,5.30
2023-01-13T16:31:24.395Z,4.70
2023-01-13T16:34:07.570Z,4.60
2023-01-13T16:36:50.558Z,4.50
2023-01-13T16:39:33.681Z,4.40
2023-01-13T16:42:16.802Z,4.80
2023-01-13T16:45:07.349Z,4.70
2023-01-13T16:47:51.166Z,4.90
2023-01-13T16:50:42.648Z,4.80
2023-01-13T16:53:25.671Z,4.10
2023-01-13T16:56:25.527Z,4.80
2023-01-13T16:59:13.573Z,4.50
2023-01-13T17:01:56.834Z,5.50
2023-01-13T17:04:39.855Z,4.50
2023-01-13T17:07:22.978Z,5.00
2023-01-13T17:10:06.804Z,3.90
2023-01-13T17:12:50.520Z,4.00
2023-01-13T17:15:34.314Z,4.10
2023-01-13T17:18:17.913Z,3.90
2023-01-13T17:21:01.601Z,4.00
2023-01-13T17:23:45.378Z,4.30
2023-01-13T17:26:37.367Z,3.80
2023-01-13T17:29:23.086Z,5.50
2023-01-13T17:32:06.536Z,3.80
2023-01-13T17:34:51.067Z,4.30
2023-01-13T17:37:35.099Z,4.40
2023-01-13T17:40:18.405Z,3.90
2023-01-13T17:43:01.746Z,3.90
2023-01-13T17:45:45.082Z,3.80
2023-01-13T17:48:28.361Z,4.50
2023-01-13T17:51:16.584Z,3.70
2023-01-13T17:53:59.563Z,4.70
2023-01-13T17:56:43.585Z,3.80
2023-01-13T17:59:26.643Z,4.00
2023-01-13T18:02:12.558Z,3.40
2023-01-13T18:04:55.695Z,3.70
2023-01-13T18:07:38.714Z,3.30
2023-01-13T18:10:21.734Z,3.20
2023-01-13T18:13:05.360Z,5.00
2023-01-13T18:15:48.293Z,3.20
2023-01-13T18:18:31.705Z,3.40
2023-01-13T18:21:45.148Z,3.50
2023-01-13T18:24:46.856Z,3.20
2023-01-13T18:27:34.504Z,3.90
2023-01-13T18:30:17.796Z,3.20
2023-01-13T18:33:00.921Z,3.30
2023-01-13T18:35:44.053Z,3.20
2023-01-13T18:38:27.115Z,4.40
2023-01-13T18:41:30.264Z,4.10
2023-01-13T18:44:13.519Z,3.60
2023-01-13T18:46:56.503Z,3.00
2023-01-13T18:49:39.612Z,3.20
2023-01-13T18:52:24.311Z,3.70
2023-01-13T18:55:08.185Z,3.40
2023-01-13T18:57:53.363Z,3.80
2023-01-13T19:00:38.115Z,3.90
2023-01-13T19:03:29.991Z,3.60
2023-01-13T19:06:14.284Z,3.50
2023-01-13T19:09:00.528Z,3.70
2023-01-13T19:11:46.891Z,4.00
2023-01-13T19:14:37.838Z,4.00
2023-01-13T19:17:22.837Z,4.10
2023-01-13T19:20:07.478Z,4.30
2023-01-13T19:22:54.989Z,5.00
2023-01-13T19:25:41.262Z,5.80
2023-01-13T19:28:24.831Z,4.90
2023-01-13T19:31:10.982Z,5.70
2023-01-13T19:33:54.228Z,6.30
2023-01-13T19:36:38.367Z,5.50
2023-01-13T19:39:22.736Z,5.30
2023-01-13T19:42:24.425Z,6.20
2023-01-13T19:45:28.282Z,5.10
2023-01-13T19:48:16.152Z,5.50
2023-01-13T19:51:01.236Z,5.50
2023-01-13T19:53:44.571Z,5.30
2023-01-13T19:56:29.560Z,5.40
2023-01-13T19:59:13.494Z,4.90
2023-01-13T20:01:58.562Z,5.10
2023-01-13T20:04:44.825Z,3.90
2023-01-13T20:07:30.193Z,4.10
2023-01-13T20:10:13.539Z,3.80
2023-01-13T20:12:56.636Z,4.10
2023-01-13T20:15:40.298Z,3.60
2023-01-13T20:18:23.345Z,4.50
2023-01-13T20:21:10.103Z,3.80
2023-01-13T20:23:53.728Z,3.40
2023-01-13T20:26:38.482Z,3.90
2023-01-13T20:29:22.689Z,3.50
2023-01-13T20:32:05.740Z,4.10
2023-01-13T20:34:49.085Z,3.80
2023-01-13T20:37:32.110Z,3.30
2023-01-13T20:40:16.179Z,4.60
2023-01-13T20:42:59.444Z,4.40
2023-01-13T20:45:42.763Z,4.20
2023-01-13T20:48:26.114Z,4.40
2023-01-13T20:51:09.158Z,4.10
2023-01-13T20:53:52.478Z,3.80
2023-01-13T20:56:37.042Z,4.90
2023-01-13T20:59:20.401Z,3.90
2023-01-13T21:02:05.461Z,4.00
2023-01-13T21:04:48.606Z,3.70
2023-01-13T21:07:32.027Z,4.20
2023-01-13T21:10:15.494Z,3.70
2023-01-13T21:13:25.022Z,4.60
2023-01-13T21:16:10.330Z,4.00
2023-01-13T21:19:10.857Z,4.80
2023-01-13T21:21:54.141Z,4.80
2023-01-13T21:24:37.063Z,3.90
2023-01-13T21:27:21.452Z,4.60
2023-01-13T21:30:05.962Z,3.70
2023-01-13T21:32:49.326Z,3.60
2023-01-13T21:35:32.685Z,3.80
2023-01-13T21:38:16.074Z,4.10
2023-01-13T21:41:02.611Z,3.70
2023-01-13T21:44:04.511Z,3.90
2023-01-13T21:47:06.240Z,3.70
2023-01-13T21:49:49.750Z,4.00
2023-01-13T21:52:32.949Z,4.30
2023-01-13T21:55:17.263Z,3.70
2023-01-13T21:58:09.258Z,3.80
2023-01-13T22:00:52.580Z,4.10
2023-01-13T22:03:55.886Z,3.50
2023-01-13T22:06:39.372Z,4.20
2023-01-13T22:09:22.373Z,3.80
2023-01-13T22:12:05.750Z,3.80
2023-01-13T22:14:50.689Z,4.00
2023-01-13T22:17:34.198Z,4.00
2023-01-13T22:20:18.402Z,3.60
2023-01-13T22:23:01.360Z,3.70
2023-01-13T22:25:44.522Z,3.50
2023-01-13T22:28:34.123Z,3.60
2023-01-13T22:31:21.020Z,3.80
2023-01-13T22:34:04.216Z,4.40
2023-01-13T22:36:47.152Z,3.90
2023-01-13T22:39:30.146Z,3.90
2023-01-13T22:42:14.190Z,3.70
2023-01-13T22:44:57.243Z,3.30
2023-01-13T22:47:40.441Z,3.40
2023-01-13T22:50:23.493Z,3.30
2023-01-13T22:53:06.474Z,3.50
2023-01-13T22:55:56.917Z,3.30
2023-01-13T22:58:39.759Z,3.60
2023-01-13T23:01:24.535Z,3.10
2023-01-13T23:04:07.528Z,3.60
2023-01-13T23:06:50.534Z,3.50
2023-01-13T23:09:33.413Z,3.60
2023-01-13T23:12:16.281Z,3.10
2023-01-13T23:14:59.301Z,3.80
2023-01-13T23:17:42.359Z,3.20
2023-01-13T23:20:25.649Z,3.00
2023-01-13T23:23:08.554Z,3.60
2023-01-13T23:25:55.400Z,3.80
2023-01-13T23:28:38.886Z,3.50
2023-01-13T23:31:22.633Z,3.60
2023-01-13T23:34:05.534Z,2.90
2023-01-13T23:36:48.408Z,3.20
2023-01-13T23:39:31.198Z,3.20
2023-01-13T23:44:56.919Z,2.90
2023-01-13T23:47:39.978Z,2.30
2023-01-13T23:50:23.023Z,2.80
2023-01-13T23:53:06.276Z,3.00
2023-01-13T23:55:49.158Z,2.70
2023-01-13T23:58:32.746Z,2.90
